Time;durP1;ratioP1;P1;durP2;ratioP2;P2;SDS_P1;SDS_P2;PMS_P1;PMS_P2;Temp;Humidity;BMP_temperature;BMP_pressure;BME280_temperature;BME280_humidity;BME280_pressure;Samples;Min_cycle;Max_cycle;Signal;HPM_P1;HPM_P2
2022/01/30 00:01:43;;;;;;;5.32;3.17;;;0.60;99.90;;;;;;5070054;28;20231;-76
2022/01/30 00:04:09;;;;;;;4.40;3.28;;;0.50;99.90;;;;;;5070360;28;20163;-75
2022/01/30 00:06:35;;;;;;;8.07;3.67;;;0.50;99.90;;;;;;5069962;28;20187;-75
2022/01/30 00:09:02;;;;;;;5.50;3.88;;;0.60;99.90;;;;;;5069397;28;20181;-76
2022/01/30 00:11:33;;;;;;;5.20;2.83;;;0.50;99.90;;;;;;5069808;28;20177;-75
2022/01/30 00:14:01;;;;;;;5.70;3.55;;;0.50;99.90;;;;;;5069822;28;20165;-76
2022/01/30 00:16:31;;;;;;;7.05;3.30;;;0.50;99.90;;;;;;5069756;28;20153;-75
2022/01/30 00:23:57;;;;;;;5.43;3.72;;;0.60;99.90;;;;;;5069856;28;20161;-74
2022/01/30 00:26:28;;;;;;;5.65;3.25;;;0.50;99.90;;;;;;5069664;28;20165;-75
2022/01/30 00:28:55;;;;;;;6.00;3.58;;;0.50;99.90;;;;;;5068948;28;20250;-75
2022/01/30 00:31:22;;;;;;;8.07;4.35;;;0.50;99.90;;;;;;5069635;28;20164;-75
2022/01/30 00:33:48;;;;;;;4.00;3.08;;;0.40;99.90;;;;;;5069424;28;20164;-75
2022/01/30 00:36:14;;;;;;;6.97;3.40;;;0.40;99.90;;;;;;5069417;28;20524;-74
2022/01/30 00:38:40;;;;;;;6.50;3.33;;;0.40;99.90;;;;;;5068804;28;20219;-75
2022/01/30 00:41:05;;;;;;;7.72;3.42;;;0.30;99.90;;;;;;5069084;28;20180;-75
2022/01/30 00:43:31;;;;;;;5.32;3.05;;;0.30;99.90;;;;;;5068728;28;20164;-75
2022/01/30 00:45:57;;;;;;;14.85;4.75;;;0.40;99.90;;;;;;5071215;28;20183;-75
2022/01/30 00:48:23;;;;;;;9.75;4.32;;;0.30;99.90;;;;;;5089273;28;20199;-74
2022/01/30 00:50:49;;;;;;;7.93;4.65;;;0.40;99.90;;;;;;5088617;28;20166;-75
2022/01/30 00:53:15;;;;;;;5.30;3.97;;;0.40;99.90;;;;;;5074419;28;20200;-75
2022/01/30 00:55:41;;;;;;;7.13;3.45;;;0.40;99.90;;;;;;5069317;28;20150;-75
2022/01/30 00:58:07;;;;;;;5.00;3.25;;;0.30;99.90;;;;;;5069348;28;20189;-74
2022/01/30 01:00:33;;;;;;;9.40;4.07;;;0.20;99.90;;;;;;5072580;28;20223;-74
2022/01/30 01:03:02;;;;;;;8.57;4.97;;;0.10;99.90;;;;;;5089151;28;20250;-75
2022/01/30 01:05:29;;;;;;;9.75;4.53;;;0.10;99.90;;;;;;5089272;28;20192;-75
2022/01/30 01:08:00;;;;;;;9.15;5.10;;;0.00;99.90;;;;;;5089273;28;20168;-74
2022/01/30 01:13:23;;;;;;;5.70;3.75;;;0.00;99.90;;;;;;5089065;28;20259;-74
2022/01/30 01:23:56;;;;;;;7.40;4.70;;;0.00;99.90;;;;;;5069159;28;20163;-73
2022/01/30 01:26:24;;;;;;;4.10;3.30;;;0.10;99.90;;;;;;5068974;28;20145;-74
2022/01/30 01:28:51;;;;;;;9.77;4.60;;;0.20;99.90;;;;;;5069069;28;20167;-75
2022/01/30 01:31:18;;;;;;;4.30;3.05;;;0.10;99.90;;;;;;5068869;28;20665;-74
2022/01/30 01:36:19;;;;;;;5.35;3.35;;;0.00;99.90;;;;;;5068982;28;20167;-75
2022/01/30 01:38:45;;;;;;;6.93;3.55;;;0.10;99.90;;;;;;5069023;28;20165;-74
2022/01/30 01:41:12;;;;;;;6.07;3.08;;;0.00;99.90;;;;;;5068610;28;20573;-74
2022/01/30 01:43:38;;;;;;;9.52;4.35;;;0.00;99.90;;;;;;5088657;28;20182;-75
2022/01/30 01:46:13;;;;;;;8.65;3.92;;;-0.10;99.90;;;;;;5088868;28;20190;-74
2022/01/30 01:48:39;;;;;;;8.07;3.40;;;0.00;99.90;;;;;;5088994;28;20166;-74
2022/01/30 01:51:07;;;;;;;6.80;4.20;;;0.10;99.90;;;;;;5088768;28;20192;-75
2022/01/30 01:53:33;;;;;;;4.40;3.15;;;0.00;99.90;;;;;;5088895;28;20183;-74
2022/01/30 01:55:59;;;;;;;9.77;3.80;;;0.20;99.90;;;;;;5091790;28;20164;-75
2022/01/30 01:58:27;;;;;;;5.88;3.25;;;0.20;99.90;;;;;;5092722;28;20163;-75
2022/01/30 02:00:53;;;;;;;7.50;3.47;;;0.10;99.90;;;;;;5092326;28;20215;-74
2022/01/30 02:03:22;;;;;;;5.13;3.20;;;0.10;99.90;;;;;;5092629;28;20172;-74
2022/01/30 02:05:54;;;;;;;6.30;4.10;;;0.20;99.90;;;;;;5091172;28;20164;-73
2022/01/30 02:08:33;;;;;;;4.70;3.22;;;0.20;99.90;;;;;;5092406;28;20224;-74
2022/01/30 02:11:32;;;;;;;6.60;4.05;;;0.20;99.90;;;;;;5092343;28;20164;-74
2022/01/30 02:25:18;;;;;;;6.75;3.28;;;0.10;99.90;;;;;;5092358;28;20159;-75
2022/01/30 02:27:44;;;;;;;5.30;3.03;;;0.10;99.90;;;;;;5092181;28;20189;-75
2022/01/30 02:30:14;;;;;;;4.55;3.45;;;0.10;99.90;;;;;;5092064;28;20156;-75
2022/01/30 02:32:41;;;;;;;6.75;4.05;;;0.10;99.90;;;;;;5092098;28;20218;-75
2022/01/30 02:35:08;;;;;;;7.88;3.83;;;0.00;99.90;;;;;;5092231;28;20179;-75
2022/01/30 02:37:34;;;;;;;7.07;3.55;;;0.00;99.90;;;;;;5092059;28;20196;-74
2022/01/30 02:40:03;;;;;;;5.13;3.15;;;0.00;99.90;;;;;;5091989;28;20156;-75
2022/01/30 02:42:32;;;;;;;4.85;3.13;;;0.00;99.90;;;;;;5091715;28;20210;-75
2022/01/30 02:45:02;;;;;;;5.30;3.85;;;0.00;99.90;;;;;;5091827;28;20164;-74
2022/01/30 02:52:39;;;;;;;7.53;3.78;;;-0.10;99.90;;;;;;5091577;28;20191;-74
2022/01/30 02:55:06;;;;;;;11.25;4.72;;;0.00;99.90;;;;;;5091781;28;20168;-74
2022/01/30 02:57:32;;;;;;;5.57;3.13;;;0.10;99.90;;;;;;5091696;28;20192;-74
2022/01/30 02:59:58;;;;;;;10.93;3.75;;;0.00;99.90;;;;;;5091420;28;20210;-74
2022/01/30 03:02:23;;;;;;;8.45;4.38;;;0.00;99.90;;;;;;5091432;28;20214;-74
2022/01/30 03:04:49;;;;;;;8.02;3.83;;;0.00;99.90;;;;;;5091396;28;20156;-74
2022/01/30 03:07:15;;;;;;;7.47;3.97;;;0.00;99.90;;;;;;5090622;28;20164;-74
2022/01/30 03:09:41;;;;;;;8.05;3.80;;;0.00;99.90;;;;;;5091457;28;20192;-74
2022/01/30 03:12:07;;;;;;;8.82;4.28;;;0.00;99.90;;;;;;5089804;28;20249;-74
2022/01/30 03:14:33;;;;;;;7.50;3.83;;;-0.10;99.90;;;;;;5091201;28;20226;-73
2022/01/30 03:17:00;;;;;;;6.30;3.92;;;-0.10;99.90;;;;;;5091057;28;20164;-74
2022/01/30 03:19:26;;;;;;;6.88;4.40;;;-0.10;99.90;;;;;;5091028;28;20164;-74
2022/01/30 03:21:52;;;;;;;8.13;3.33;;;-0.20;99.90;;;;;;5090959;28;20203;-73
2022/01/30 03:24:18;;;;;;;8.88;3.83;;;0.00;99.90;;;;;;5091026;28;20162;-74
2022/01/30 03:26:44;;;;;;;4.18;3.15;;;0.10;99.90;;;;;;5090941;28;20632;-74
2022/01/30 03:29:10;;;;;;;8.65;3.92;;;0.10;99.90;;;;;;5089588;28;20175;-73
2022/01/30 03:31:39;;;;;;;7.70;3.33;;;0.20;99.90;;;;;;5090926;28;20608;-73
2022/01/30 03:34:10;;;;;;;5.28;3.47;;;0.50;99.90;;;;;;5090789;28;20162;-73
2022/01/30 03:36:37;;;;;;;5.57;3.65;;;0.50;99.90;;;;;;5090845;28;20186;-74
2022/01/30 03:39:04;;;;;;;4.93;3.20;;;0.50;99.90;;;;;;5090750;28;20163;-74
2022/01/30 03:41:31;;;;;;;10.98;3.97;;;0.50;99.90;;;;;;5090534;28;20251;-74
2022/01/30 03:43:57;;;;;;;6.80;4.22;;;0.40;99.90;;;;;;5090673;28;20156;-74
2022/01/30 03:46:24;;;;;;;7.30;3.88;;;0.30;99.90;;;;;;5090525;28;20175;-74
2022/01/30 03:48:50;;;;;;;9.32;4.22;;;0.30;99.90;;;;;;5090546;28;20184;-74
2022/01/30 03:51:16;;;;;;;8.13;3.95;;;0.40;99.90;;;;;;5085416;28;20351;-73
2022/01/30 03:53:42;;;;;;;4.00;3.42;;;0.40;99.90;;;;;;5070100;28;20187;-73
2022/01/30 03:56:08;;;;;;;5.25;2.97;;;0.40;99.90;;;;;;5070148;28;20595;-74
2022/01/30 03:58:36;;;;;;;8.65;5.22;;;0.30;99.90;;;;;;5070309;28;20168;-73
2022/01/30 04:01:02;;;;;;;5.05;3.92;;;0.20;99.90;;;;;;5069921;28;20220;-73
2022/01/30 04:03:28;;;;;;;7.40;4.15;;;0.20;99.90;;;;;;5070310;28;20172;-73
2022/01/30 04:05:54;;;;;;;3.85;3.08;;;0.30;99.90;;;;;;5070192;28;20161;-73
2022/01/30 04:08:20;;;;;;;6.78;3.63;;;0.20;99.90;;;;;;5070123;28;20217;-74
2022/01/30 04:10:46;;;;;;;7.97;3.00;;;0.20;99.90;;;;;;5070071;28;20152;-73
2022/01/30 04:13:12;;;;;;;8.82;3.92;;;0.10;99.90;;;;;;5069860;28;20192;-73
2022/01/30 04:15:38;;;;;;;9.32;3.70;;;0.10;99.90;;;;;;5069965;28;20167;-73
2022/01/30 04:18:04;;;;;;;7.97;3.55;;;0.00;99.90;;;;;;5069196;28;20165;-73
2022/01/30 04:20:31;;;;;;;8.57;4.25;;;-0.10;99.90;;;;;;5069603;28;20172;-73
2022/01/30 04:22:57;;;;;;;5.00;3.72;;;-0.20;99.90;;;;;;5069616;28;20199;-73
2022/01/30 04:25:23;;;;;;;9.40;5.07;;;-0.20;99.90;;;;;;5069821;28;20153;-73
2022/01/30 04:27:50;;;;;;;7.68;3.95;;;-0.20;99.90;;;;;;5069572;28;20175;-73
2022/01/30 04:30:17;;;;;;;9.32;4.20;;;-0.20;99.90;;;;;;5069535;28;20145;-73
2022/01/30 04:32:44;;;;;;;5.20;3.47;;;-0.20;99.90;;;;;;5069678;28;20664;-73
2022/01/30 04:35:16;;;;;;;6.65;4.35;;;-0.20;99.90;;;;;;5069567;28;20224;-74
2022/01/30 04:37:58;;;;;;;12.93;5.07;;;-0.40;99.90;;;;;;5069619;28;20181;-74
2022/01/30 04:55:19;;;;;;;4.55;3.45;;;-0.30;99.90;;;;;;5069322;28;20210;-73
2022/01/30 04:57:02;;;;;;;9.93;5.03;;;-0.10;99.90;;;;;;5071786;28;20192;-74
2022/01/30 05:04:53;;;;;;;6.47;4.43;;;0.00;99.90;;;;;;5069326;28;20558;-73
2022/01/30 05:09:45;;;;;;;4.88;4.05;;;0.20;99.90;;;;;;5069046;28;20512;-74
2022/01/30 05:12:14;;;;;;;8.40;4.32;;;0.00;99.90;;;;;;5068883;28;20223;-74
2022/01/30 05:14:40;;;;;;;9.35;4.85;;;0.00;99.90;;;;;;5068954;28;20243;-74
2022/01/30 05:17:07;;;;;;;6.57;4.03;;;-0.20;99.90;;;;;;5069007;28;20157;-74
2022/01/30 05:19:33;;;;;;;8.85;4.70;;;-0.20;99.90;;;;;;5068834;28;20525;-74
2022/01/30 05:21:59;;;;;;;6.30;4.63;;;-0.30;99.90;;;;;;5068595;28;20196;-74
2022/01/30 05:24:25;;;;;;;5.13;4.07;;;-0.30;99.90;;;;;;5068854;28;20161;-74
2022/01/30 05:26:52;;;;;;;8.10;5.47;;;-0.40;99.90;;;;;;5068788;28;20156;-74
2022/01/30 05:29:18;;;;;;;9.90;5.15;;;-0.60;99.90;;;;;;5068334;28;20184;-74
2022/01/30 05:31:45;;;;;;;7.00;4.72;;;-0.60;99.90;;;;;;5080066;28;20210;-74
2022/01/30 05:34:11;;;;;;;6.88;4.25;;;-0.70;99.90;;;;;;5093125;28;20160;-73
2022/01/30 05:36:40;;;;;;;8.73;4.32;;;-0.80;99.90;;;;;;5086030;28;20545;-74
2022/01/30 05:39:07;;;;;;;8.45;4.10;;;-0.80;99.90;;;;;;5072810;28;20220;-74
2022/01/30 05:41:34;;;;;;;5.68;4.43;;;-0.90;99.90;;;;;;5072692;28;20196;-74
2022/01/30 05:44:09;;;;;;;8.73;4.70;;;-1.00;99.90;;;;;;5072811;28;20161;-75
2022/01/30 05:46:46;;;;;;;8.65;5.20;;;-1.10;99.90;;;;;;5080363;28;20176;-74
2022/01/30 05:49:14;;;;;;;8.60;5.28;;;-1.10;99.90;;;;;;5092658;28;20159;-75
2022/01/30 05:51:41;;;;;;;7.13;4.72;;;-1.10;99.90;;;;;;5092627;28;20196;-75
2022/01/30 05:54:07;;;;;;;9.82;4.65;;;-1.10;99.90;;;;;;5092658;28;20176;-74
2022/01/30 05:56:34;;;;;;;6.72;4.80;;;-1.10;99.90;;;;;;5092474;28;20164;-75
2022/01/30 05:59:01;;;;;;;8.02;5.70;;;-1.10;99.90;;;;;;5092482;28;20164;-74
2022/01/30 06:01:27;;;;;;;14.05;6.25;;;-1.00;99.90;;;;;;5092179;28;20224;-74
2022/01/30 06:03:53;;;;;;;8.38;5.70;;;-1.00;99.90;;;;;;5092573;28;20495;-74
2022/01/30 06:06:19;;;;;;;9.30;5.25;;;-1.10;99.90;;;;;;5092504;28;20184;-74
2022/01/30 06:08:57;;;;;;;11.35;6.57;;;-1.10;99.90;;;;;;5092498;28;20167;-75
2022/01/30 06:11:23;;;;;;;8.27;4.32;;;-1.20;99.90;;;;;;5092307;28;20183;-75
2022/01/30 06:13:49;;;;;;;7.97;3.95;;;-1.20;99.90;;;;;;5075603;28;20189;-75
2022/01/30 06:16:15;;;;;;;6.72;4.50;;;-1.20;99.90;;;;;;5071961;28;20218;-74
2022/01/30 06:18:43;;;;;;;8.10;4.90;;;-1.20;99.90;;;;;;5072230;28;20300;-73
2022/01/30 06:21:09;;;;;;;7.82;4.28;;;-1.10;99.90;;;;;;5071878;28;20161;-74
2022/01/30 06:23:36;;;;;;;10.73;4.50;;;-1.00;99.90;;;;;;5071910;28;20164;-74
2022/01/30 06:26:04;;;;;;;7.18;4.20;;;-0.80;99.90;;;;;;5071840;28;20224;-74
2022/01/30 06:28:30;;;;;;;8.23;3.70;;;-0.50;99.90;;;;;;5071923;28;20187;-74
2022/01/30 06:30:56;;;;;;;7.75;4.07;;;-0.40;99.90;;;;;;5071750;28;20216;-74
2022/01/30 06:33:22;;;;;;;7.10;4.20;;;-0.30;99.90;;;;;;5071852;28;20165;-75
2022/01/30 06:35:48;;;;;;;3.80;3.08;;;0.00;99.90;;;;;;5071886;28;20168;-75
2022/01/30 06:38:14;;;;;;;0.30;0.30;;;0.50;99.90;;;;;;5071907;28;20157;-75
2022/01/30 06:40:39;;;;;;;0.40;0.20;;;3.80;99.90;;;;;;5071489;28;20167;-75
2022/01/30 06:43:05;;;;;;;0.57;0.30;;;6.50;99.90;;;;;;5073718;28;20657;-75
2022/01/30 06:45:32;;;;;;;0.75;0.68;;;7.50;99.90;;;;;;5091770;28;20156;-78
2022/01/30 06:47:58;;;;;;;1.00;0.30;;;7.70;99.90;;;;;;5091922;28;20168;-76
2022/01/30 06:50:24;;;;;;;1.02;0.22;;;8.00;99.90;;;;;;5091619;28;20160;-77
2022/01/30 06:52:50;;;;;;;0.30;0.30;;;8.40;99.90;;;;;;5091477;28;20192;-77
2022/01/30 06:55:16;;;;;;;0.20;0.20;;;8.60;99.90;;;;;;5091433;28;20171;-75
2022/01/30 06:57:46;;;;;;;0.20;0.20;;;8.60;99.90;;;;;;5091343;28;20549;-75
2022/01/30 07:00:13;;;;;;;0.20;0.20;;;8.60;99.90;;;;;;5091320;28;20216;-76
2022/01/30 07:02:39;;;;;;;0.00;0.00;;;8.50;99.90;;;;;;5091316;28;20196;-75
2022/01/30 07:05:05;;;;;;;1.20;0.15;;;8.60;99.90;;;;;;5091483;28;20156;-79
2022/01/30 07:07:31;;;;;;;0.10;0.10;;;9.00;99.90;;;;;;5091393;28;20156;-75
2022/01/30 07:09:57;;;;;;;0.10;0.10;;;9.00;99.90;;;;;;5091228;28;20206;-75
2022/01/30 07:12:23;;;;;;;0.22;0.10;;;8.80;99.90;;;;;;5091246;28;20192;-77
2022/01/30 07:14:49;;;;;;;0.70;0.22;;;9.00;99.90;;;;;;5091282;28;20167;-75
2022/01/30 07:17:15;;;;;;;0.10;0.10;;;8.90;99.90;;;;;;5091355;28;20190;-75
2022/01/30 07:19:41;;;;;;;0.13;0.13;;;9.10;99.90;;;;;;5091228;28;20157;-76
2022/01/30 07:22:07;;;;;;;1.08;0.10;;;9.20;99.90;;;;;;5090917;28;20235;-75
2022/01/30 07:24:33;;;;;;;0.30;0.20;;;9.40;99.90;;;;;;5090939;28;20610;-76
2022/01/30 07:26:59;;;;;;;1.75;0.10;;;9.10;99.90;;;;;;5090839;28;20319;-76
2022/01/30 07:29:25;;;;;;;0.10;0.10;;;9.20;99.90;;;;;;5090868;28;20152;-76
2022/01/30 07:31:51;;;;;;;0.85;0.10;;;9.20;99.90;;;;;;5090821;28;20203;-76
2022/01/30 07:34:19;;;;;;;0.10;0.10;;;9.30;99.90;;;;;;5090863;28;20160;-75
2022/01/30 07:36:46;;;;;;;0.20;0.20;;;9.20;99.90;;;;;;5090849;28;20229;-76
2022/01/30 07:39:12;;;;;;;0.20;0.10;;;9.20;99.90;;;;;;5090632;28;20214;-76
2022/01/30 07:41:38;;;;;;;0.00;0.00;;;9.40;99.90;;;;;;5090590;28;20215;-76
2022/01/30 07:44:05;;;;;;;0.10;0.10;;;9.40;99.90;;;;;;5090504;28;20220;-75
2022/01/30 07:46:30;;;;;;;0.00;0.00;;;9.50;99.90;;;;;;5090416;28;20179;-76
2022/01/30 07:48:57;;;;;;;0.20;0.13;;;9.70;99.90;;;;;;5090525;28;20160;-76
2022/01/30 07:51:23;;;;;;;0.70;0.20;;;9.90;99.90;;;;;;5090594;28;20198;-76
2022/01/30 07:53:49;;;;;;;0.30;0.10;;;9.90;99.90;;;;;;5088960;28;20168;-77
2022/01/30 07:56:15;;;;;;;0.10;0.10;;;10.00;99.90;;;;;;5090240;28;20165;-76
2022/01/30 07:58:41;;;;;;;0.22;0.17;;;10.40;99.90;;;;;;5090347;28;20174;-76
2022/01/30 08:01:07;;;;;;;0.45;0.20;;;10.40;99.90;;;;;;5089902;28;20275;-75
2022/01/30 08:03:33;;;;;;;3.20;0.43;;;10.40;99.90;;;;;;5090121;28;20676;-77
2022/01/30 08:05:59;;;;;;;0.52;0.17;;;10.60;99.90;;;;;;5090271;28;20163;-78
2022/01/30 08:08:25;;;;;;;0.10;0.10;;;10.70;99.90;;;;;;5090114;28;20156;-78
2022/01/30 08:10:51;;;;;;;4.10;0.30;;;10.70;99.90;;;;;;5090053;28;20156;-79
2022/01/30 08:13:17;;;;;;;0.47;0.25;;;10.90;99.90;;;;;;5089881;28;20199;-76
2022/01/30 08:15:45;;;;;;;1.60;0.20;;;11.00;99.90;;;;;;5089644;28;20188;-75
2022/01/30 08:18:11;;;;;;;3.88;0.47;;;11.30;99.90;;;;;;5089826;28;20523;-75
2022/01/30 08:20:37;;;;;;;2.72;0.15;;;11.40;99.90;;;;;;5089792;28;20263;-76
2022/01/30 08:23:10;;;;;;;0.77;0.10;;;11.60;99.90;;;;;;5088365;28;20702;-77
2022/01/30 08:25:36;;;;;;;3.92;0.45;;;11.60;99.90;;;;;;5089492;28;20237;-77
2022/01/30 08:28:02;;;;;;;0.20;0.10;;;11.80;99.90;;;;;;5089712;28;20163;-75
2022/01/30 08:30:28;;;;;;;0.20;0.20;;;12.10;99.90;;;;;;5089626;28;20160;-75
2022/01/30 08:32:54;;;;;;;2.03;0.25;;;12.80;99.40;;;;;;5089776;28;20187;-75
2022/01/30 08:35:21;;;;;;;2.85;0.32;;;13.70;98.90;;;;;;5089292;28;20160;-76
2022/01/30 08:37:47;;;;;;;0.10;0.10;;;15.90;97.20;;;;;;5088080;28;20148;-77
2022/01/30 08:40:16;;;;;;;5.13;0.28;;;15.20;97.20;;;;;;5089494;28;20613;-75
2022/01/30 08:42:43;;;;;;;1.15;0.20;;;15.10;97.60;;;;;;5089301;28;20206;-77
2022/01/30 08:45:11;;;;;;;0.10;0.10;;;15.00;97.60;;;;;;5089540;28;20152;-75
2022/01/30 08:47:37;;;;;;;0.30;0.20;;;14.30;98.20;;;;;;5087687;28;20153;-75
2022/01/30 08:50:07;;;;;;;0.10;0.10;;;14.20;99.10;;;;;;5089463;28;20164;-75
2022/01/30 08:52:34;;;;;;;2.15;0.60;;;14.90;98.40;;;;;;5089158;28;20629;-75
2022/01/30 08:55:01;;;;;;;1.05;0.30;;;15.40;98.10;;;;;;5089117;28;20168;-76
2022/01/30 08:57:27;;;;;;;0.35;0.10;;;14.80;98.00;;;;;;5089315;28;20161;-76
2022/01/30 08:59:54;;;;;;;0.28;0.28;;;14.20;98.00;;;;;;5089052;28;20215;-75
2022/01/30 09:02:20;;;;;;;0.20;0.15;;;15.40;96.70;;;;;;5089312;28;20203;-77
2022/01/30 09:04:45;;;;;;;0.10;0.10;;;14.60;97.00;;;;;;5088666;28;20187;-77
2022/01/30 09:07:11;;;;;;;0.68;0.20;;;14.00;97.40;;;;;;5089201;28;20244;-75
2022/01/30 09:09:37;;;;;;;2.05;0.88;;;13.80;97.30;;;;;;5088981;28;20702;-76
2022/01/30 09:12:03;;;;;;;0.20;0.20;;;14.10;97.50;;;;;;5089105;28;20164;-76
2022/01/30 09:14:30;;;;;;;2.25;0.22;;;14.40;97.10;;;;;;5089013;28;20195;-75
2022/01/30 09:16:56;;;;;;;1.45;0.20;;;14.40;96.80;;;;;;5089060;28;20156;-75
2022/01/30 09:19:22;;;;;;;0.13;0.13;;;14.20;97.00;;;;;;5088783;28;20168;-75
2022/01/30 09:21:48;;;;;;;1.58;0.50;;;13.90;97.50;;;;;;5088683;28;20198;-77
2022/01/30 09:24:14;;;;;;;2.50;0.13;;;14.10;95.90;;;;;;5087558;28;20195;-75
2022/01/30 09:26:41;;;;;;;0.22;0.17;;;14.10;96.20;;;;;;5088922;28;20269;-79
2022/01/30 09:29:07;;;;;;;5.00;0.50;;;13.70;95.60;;;;;;5089083;28;20157;-77
2022/01/30 09:31:33;;;;;;;5.10;0.60;;;13.60;95.40;;;;;;5088939;28;20166;-73
2022/01/30 09:33:59;;;;;;;1.35;0.20;;;14.00;96.00;;;;;;5088803;28;20255;-74
2022/01/30 09:36:25;;;;;;;0.40;0.08;;;14.60;94.90;;;;;;5088993;28;20160;-74
2022/01/30 09:38:52;;;;;;;0.10;0.10;;;14.30;95.40;;;;;;5088829;28;20160;-75
2022/01/30 09:41:19;;;;;;;0.98;0.20;;;14.50;95.20;;;;;;5089075;28;20168;-74
2022/01/30 09:43:45;;;;;;;0.10;0.10;;;13.90;95.70;;;;;;5088683;28;20195;-77
2022/01/30 09:46:11;;;;;;;0.95;0.20;;;14.50;95.70;;;;;;5088736;28;20219;-76
2022/01/30 09:48:38;;;;;;;0.30;0.10;;;14.30;95.10;;;;;;5088790;28;20163;-76
2022/01/30 09:51:08;;;;;;;2.47;0.77;;;14.80;94.10;;;;;;5088736;28;20159;-76
2022/01/30 09:53:36;;;;;;;8.50;0.57;;;14.70;94.00;;;;;;5088444;28;20200;-77
2022/01/30 09:56:03;;;;;;;1.13;0.38;;;14.90;94.60;;;;;;5088742;28;20166;-78
2022/01/30 09:58:30;;;;;;;0.47;0.25;;;14.20;94.30;;;;;;5088488;28;20148;-76
2022/01/30 10:00:57;;;;;;;7.13;0.20;;;14.30;94.10;;;;;;5088359;28;20368;-77
2022/01/30 10:03:28;;;;;;;0.20;0.10;;;14.60;94.00;;;;;;5088536;28;20211;-76
2022/01/30 10:06:17;;;;;;;0.80;0.10;;;14.20;94.60;;;;;;5088524;28;20153;-77
2022/01/30 10:08:45;;;;;;;2.92;0.20;;;14.40;94.70;;;;;;5088726;28;20149;-76
2022/01/30 10:11:31;;;;;;;0.10;0.00;;;14.10;94.80;;;;;;5088554;28;20172;-76
2022/01/30 10:14:11;;;;;;;0.20;0.10;;;14.90;94.50;;;;;;5088458;28;20196;-78
2022/01/30 10:16:47;;;;;;;0.10;0.10;;;14.50;95.10;;;;;;5090530;28;20160;-76
2022/01/30 10:19:23;;;;;;;1.20;0.40;;;13.70;96.10;;;;;;5092156;28;20613;-75
2022/01/30 10:22:06;;;;;;;3.75;0.25;;;13.90;95.50;;;;;;5092157;28;20183;-77
2022/01/30 10:24:37;;;;;;;0.20;0.20;;;13.90;96.00;;;;;;5091896;28;20191;-76
2022/01/30 10:27:18;;;;;;;1.00;0.28;;;13.80;96.10;;;;;;5090917;28;20171;-76
2022/01/30 10:29:44;;;;;;;4.78;0.52;;;14.10;95.40;;;;;;5092133;28;20159;-77
2022/01/30 10:32:10;;;;;;;0.50;0.10;;;13.70;96.50;;;;;;5092082;28;20165;-78
2022/01/30 10:34:38;;;;;;;0.65;0.10;;;13.60;96.70;;;;;;5091950;28;20192;-78
2022/01/30 10:37:23;;;;;;;1.45;0.30;;;14.00;96.20;;;;;;5092007;28;20591;-76
2022/01/30 10:39:53;;;;;;;0.00;0.00;;;14.30;95.60;;;;;;5082511;28;20192;-76
2022/01/30 10:42:45;;;;;;;5.90;0.32;;;13.80;96.10;;;;;;5071764;28;20213;-75
2022/01/30 10:45:19;;;;;;;0.50;0.30;;;13.70;96.30;;;;;;5080291;28;20160;-75
2022/01/30 10:47:46;;;;;;;5.43;0.52;;;13.50;95.80;;;;;;5078950;28;20160;-78
2022/01/30 10:50:14;;;;;;;0.73;0.22;;;13.50;95.40;;;;;;5080390;28;20176;-75
2022/01/30 10:52:51;;;;;;;5.25;0.25;;;13.00;96.50;;;;;;5080972;28;20172;-74
2022/01/30 10:55:34;;;;;;;0.20;0.15;;;13.40;96.70;;;;;;5076116;28;20165;-75
2022/01/30 10:58:01;;;;;;;0.17;0.10;;;13.70;96.50;;;;;;5070721;28;20215;-76
2022/01/30 11:00:46;;;;;;;5.30;0.50;;;13.30;96.50;;;;;;5071071;28;20631;-76
2022/01/30 11:03:41;;;;;;;0.38;0.10;;;13.20;96.70;;;;;;5069904;28;20208;-74
2022/01/30 11:06:11;;;;;;;0.10;0.10;;;13.40;96.90;;;;;;5071326;28;20161;-75
2022/01/30 11:08:40;;;;;;;0.10;0.10;;;13.20;96.80;;;;;;5070613;28;20145;-77
2022/01/30 11:11:15;;;;;;;0.47;0.13;;;13.30;96.60;;;;;;5071196;28;20203;-75
2022/01/30 11:14:00;;;;;;;0.52;0.30;;;12.90;97.30;;;;;;5071039;28;20656;-76
2022/01/30 11:19:12;;;;;;;0.20;0.20;;;13.10;97.60;;;;;;5070571;28;20164;-74
2022/01/30 11:21:40;;;;;;;0.10;0.10;;;13.50;96.90;;;;;;5070834;28;20199;-74
2022/01/30 11:24:07;;;;;;;0.10;0.10;;;13.40;97.20;;;;;;5069405;28;20208;-75
2022/01/30 11:26:33;;;;;;;0.10;0.10;;;13.10;97.50;;;;;;5070794;28;20190;-75
2022/01/30 11:29:00;;;;;;;0.20;0.20;;;12.90;97.30;;;;;;5069679;28;20165;-74
2022/01/30 11:31:26;;;;;;;0.10;0.10;;;13.30;97.00;;;;;;5070755;28;20179;-78
2022/01/30 11:33:54;;;;;;;0.65;0.10;;;13.70;95.50;;;;;;5070418;28;20255;-75
2022/01/30 11:36:22;;;;;;;0.10;0.10;;;13.70;95.80;;;;;;5078023;28;20169;-74
2022/01/30 11:38:49;;;;;;;1.85;0.15;;;13.20;95.70;;;;;;5084729;28;20160;-74
2022/01/30 11:41:15;;;;;;;0.20;0.10;;;13.20;95.30;;;;;;5085321;28;20157;-75
2022/01/30 11:44:01;;;;;;;0.10;0.10;;;13.30;95.10;;;;;;5072937;28;20253;-75
2022/01/30 11:46:27;;;;;;;2.17;0.10;;;13.30;94.70;;;;;;5064978;28;20832;-75
2022/01/30 11:49:12;;;;;;;0.30;0.30;;;13.00;94.00;;;;;;5073874;28;20186;-75
2022/01/30 11:51:52;;;;;;;6.30;0.40;;;13.00;94.60;;;;;;5081817;28;20188;-75
2022/01/30 11:54:41;;;;;;;1.90;0.17;;;12.50;95.30;;;;;;5064470;28;20389;-77
2022/01/30 11:57:37;;;;;;;1.05;0.40;;;12.40;95.40;;;;;;5063253;28;20181;-77
2022/01/30 12:00:05;;;;;;;2.83;0.20;;;12.60;95.70;;;;;;5063236;28;20218;-78
2022/01/30 12:02:32;;;;;;;0.15;0.13;;;12.50;95.70;;;;;;5082094;28;20245;-75
2022/01/30 12:05:05;;;;;;;0.25;0.13;;;12.60;96.50;;;;;;5083630;28;20195;-76
2022/01/30 12:07:37;;;;;;;6.32;0.25;;;12.70;95.70;;;;;;5078664;28;20165;-79
2022/01/30 12:10:15;;;;;;;0.63;0.10;;;12.70;95.80;;;;;;5080059;28;20210;-74
2022/01/30 12:12:59;;;;;;;2.10;0.10;;;12.90;97.20;;;;;;5064949;28;20190;-76
2022/01/30 12:15:34;;;;;;;0.30;0.10;;;12.70;96.80;;;;;;5064488;28;20188;-76
2022/01/30 12:18:00;;;;;;;2.60;0.28;;;12.20;97.10;;;;;;5064506;28;20164;-75
2022/01/30 12:20:30;;;;;;;3.13;0.43;;;12.20;97.20;;;;;;5064040;28;20153;-74
2022/01/30 12:22:57;;;;;;;2.45;0.15;;;12.00;97.90;;;;;;5064009;28;20347;-75
2022/01/30 12:25:29;;;;;;;0.10;0.10;;;12.20;97.90;;;;;;5062725;28;20230;-75
2022/01/30 12:27:58;;;;;;;5.00;0.30;;;12.00;97.50;;;;;;5064247;28;20179;-77
2022/01/30 12:30:37;;;;;;;0.25;0.25;;;11.80;96.90;;;;;;5064104;28;20149;-76
2022/01/30 12:33:36;;;;;;;0.00;0.00;;;11.40;97.60;;;;;;5063596;28;20160;-75
2022/01/30 12:36:10;;;;;;;4.00;0.82;;;11.60;98.20;;;;;;5064241;28;20221;-78
2022/01/30 12:38:36;;;;;;;1.85;0.32;;;11.10;97.50;;;;;;5063850;28;20179;-77
2022/01/30 12:41:23;;;;;;;3.70;0.30;;;11.00;98.40;;;;;;5063323;28;20169;-76
2022/01/30 12:43:57;;;;;;;0.40;0.30;;;10.80;98.50;;;;;;5063308;28;20246;-74
2022/01/30 12:46:27;;;;;;;0.20;0.20;;;10.50;99.30;;;;;;5064478;28;20202;-77
2022/01/30 12:49:00;;;;;;;4.82;0.55;;;10.50;99.30;;;;;;5083923;28;20171;-76
2022/01/30 12:51:27;;;;;;;4.00;0.30;;;10.40;98.40;;;;;;5083854;28;20528;-77
2022/01/30 12:53:55;;;;;;;0.10;0.10;;;10.40;99.90;;;;;;5075489;28;20184;-75
2022/01/30 12:56:22;;;;;;;1.30;0.10;;;10.30;99.90;;;;;;5063509;28;20187;-77
2022/01/30 12:58:54;;;;;;;0.65;0.30;;;10.30;99.80;;;;;;5063557;28;20260;-77
2022/01/30 13:01:24;;;;;;;0.30;0.20;;;10.30;99.40;;;;;;5063214;28;20291;-74
2022/01/30 13:04:15;;;;;;;3.08;0.55;;;10.20;99.30;;;;;;5062974;28;20205;-78
2022/01/30 13:06:49;;;;;;;0.20;0.20;;;10.30;98.20;;;;;;5063829;28;20153;-77
2022/01/30 13:09:26;;;;;;;0.90;0.28;;;10.40;98.10;;;;;;5072070;28;20218;-77
2022/01/30 13:11:54;;;;;;;2.92;0.38;;;10.20;99.10;;;;;;5063742;28;20157;-75
2022/01/30 13:14:20;;;;;;;0.20;0.20;;;10.20;98.80;;;;;;5069959;28;20211;-77
2022/01/30 13:16:51;;;;;;;1.40;0.65;;;10.20;99.30;;;;;;5068619;28;20189;-76
2022/01/30 13:19:34;;;;;;;0.43;0.20;;;10.20;98.90;;;;;;5063770;28;20169;-74
2022/01/30 13:22:03;;;;;;;0.35;0.20;;;10.10;99.70;;;;;;5063462;28;20219;-75
2022/01/30 13:24:29;;;;;;;0.65;0.20;;;10.10;99.60;;;;;;5069361;28;20200;-74
2022/01/30 13:27:04;;;;;;;0.25;0.20;;;10.00;99.90;;;;;;5063744;28;20161;-74
2022/01/30 13:29:34;;;;;;;0.63;0.20;;;10.10;99.90;;;;;;5074827;28;20245;-75
2022/01/30 13:32:06;;;;;;;1.35;0.40;;;10.10;99.60;;;;;;5062256;28;20180;-74
2022/01/30 13:34:33;;;;;;;0.20;0.20;;;10.20;98.90;;;;;;5062570;28;20291;-73
2022/01/30 13:37:11;;;;;;;0.10;0.10;;;10.20;98.70;;;;;;5063326;28;20172;-73
2022/01/30 13:39:51;;;;;;;2.03;0.20;;;10.20;98.50;;;;;;5063316;28;20175;-74
2022/01/30 13:47:41;;;;;;;1.25;0.35;;;10.10;97.30;;;;;;5078431;28;20244;-75
2022/01/30 13:50:18;;;;;;;3.55;0.28;;;10.00;97.60;;;;;;5083192;28;20536;-77
2022/01/30 13:52:44;;;;;;;0.15;0.15;;;9.90;97.70;;;;;;5087315;28;20167;-75
2022/01/30 13:55:10;;;;;;;1.67;0.17;;;9.90;97.60;;;;;;5086593;28;20532;-77
2022/01/30 13:57:39;;;;;;;3.13;0.22;;;9.90;97.70;;;;;;5086974;28;20168;-78
2022/01/30 14:00:10;;;;;;;2.10;0.45;;;9.80;97.70;;;;;;5087216;28;20218;-77
2022/01/30 14:03:11;;;;;;;1.60;0.30;;;9.80;97.60;;;;;;5086983;28;20208;-78
2022/01/30 14:05:43;;;;;;;1.35;0.20;;;9.80;97.40;;;;;;5086514;28;20202;-76